sensor_id;sensor_type;location;lat;lon;timestamp;pressure;altitude;pressure_sealevel;temperature;humidity
49055;BME280;35405;52.344;14.530;2023-05-29T06:01:37;101432.06;;;14.35;56.16
49055;BME280;35405;52.344;14.530;2023-05-29T06:04:03;101438.47;;;14.18;56.76
49055;BME280;35405;52.344;14.530;2023-05-29T06:06:29;101436.44;;;13.86;57.21
49055;BME280;35405;52.344;14.530;2023-05-29T06:08:56;101433.50;;;13.57;57.52
49055;BME280;35405;52.344;14.530;2023-05-29T06:11:23;101427.78;;;13.33;58.86
49055;BME280;35405;52.344;14.530;2023-05-29T06:13:48;101431.25;;;13.32;58.77
49055;BME280;35405;52.344;14.530;2023-05-29T06:16:13;101438.00;;;13.45;58.85
49055;BME280;35405;52.344;14.530;2023-05-29T06:18:38;101437.66;;;13.65;58.68
49055;BME280;35405;52.344;14.530;2023-05-29T06:21:04;101437.84;;;14.06;57.98
49055;BME280;35405;52.344;14.530;2023-05-29T06:23:32;101435.53;;;14.35;56.89
49055;BME280;35405;52.344;14.530;2023-05-29T06:25:58;101435.56;;;14.77;56.56
49055;BME280;35405;52.344;14.530;2023-05-29T06:28:24;101435.97;;;14.99;55.98
49055;BME280;35405;52.344;14.530;2023-05-29T06:30:49;101440.72;;;15.21;54.63
49055;BME280;35405;52.344;14.530;2023-05-29T06:33:14;101431.91;;;15.25;54.12
49055;BME280;35405;52.344;14.530;2023-05-29T06:35:40;101439.00;;;15.20;54.39
49055;BME280;35405;52.344;14.530;2023-05-29T06:38:05;101433.97;;;15.49;54.51
49055;BME280;35405;52.344;14.530;2023-05-29T06:40:31;101444.75;;;15.73;53.35
49055;BME280;35405;52.344;14.530;2023-05-29T06:42:56;101441.06;;;15.80;52.75
49055;BME280;35405;52.344;14.530;2023-05-29T06:45:21;101451.69;;;15.74;52.36
49055;BME280;35405;52.344;14.530;2023-05-29T06:47:46;101446.28;;;15.80;51.63
49055;BME280;35405;52.344;14.530;2023-05-29T06:50:11;101450.34;;;15.92;50.81
49055;BME280;35405;52.344;14.530;2023-05-29T06:52:37;101442.88;;;16.11;51.12
49055;BME280;35405;52.344;14.530;2023-05-29T06:55:02;101452.28;;;16.18;50.30
49055;BME280;35405;52.344;14.530;2023-05-29T06:57:27;101457.69;;;16.12;50.22
49055;BME280;35405;52.344;14.530;2023-05-29T06:59:53;101455.06;;;16.12;49.21
49055;BME280;35405;52.344;14.530;2023-05-29T07:02:18;101450.28;;;16.27;50.28
49055;BME280;35405;52.344;14.530;2023-05-29T07:04:44;101466.28;;;16.48;48.94
49055;BME280;35405;52.344;14.530;2023-05-29T07:07:09;101467.31;;;16.42;48.90
49055;BME280;35405;52.344;14.530;2023-05-29T07:09:34;101472.25;;;16.53;48.83
49055;BME280;35405;52.344;14.530;2023-05-29T07:12:00;101465.81;;;16.65;48.41
49055;BME280;35405;52.344;14.530;2023-05-29T07:14:25;101467.16;;;16.80;49.28
49055;BME280;35405;52.344;14.530;2023-05-29T07:16:50;101474.78;;;16.87;48.20
49055;BME280;35405;52.344;14.530;2023-05-29T07:19:16;101481.28;;;16.74;48.88
49055;BME280;35405;52.344;14.530;2023-05-29T07:21:42;101490.47;;;16.89;49.46
49055;BME280;35405;52.344;14.530;2023-05-29T07:24:07;101486.09;;;16.89;48.82
49055;BME280;35405;52.344;14.530;2023-05-29T07:26:32;101482.16;;;16.73;48.84
49055;BME280;35405;52.344;14.530;2023-05-29T07:28:57;101484.00;;;16.69;49.31
49055;BME280;35405;52.344;14.530;2023-05-29T07:31:23;101477.88;;;17.02;47.65
49055;BME280;35405;52.344;14.530;2023-05-29T07:33:48;101484.31;;;17.19;47.75
49055;BME280;35405;52.344;14.530;2023-05-29T07:36:15;101485.13;;;17.50;47.00
49055;BME280;35405;52.344;14.530;2023-05-29T07:38:41;101479.69;;;17.56;46.30
49055;BME280;35405;52.344;14.530;2023-05-29T07:41:06;101490.28;;;17.51;45.11
49055;BME280;35405;52.344;14.530;2023-05-29T07:43:31;101486.50;;;17.33;46.04
49055;BME280;35405;52.344;14.530;2023-05-29T07:45:57;101493.66;;;17.56;44.90
49055;BME280;35405;52.344;14.530;2023-05-29T07:48:22;101487.75;;;17.50;45.29
49055;BME280;35405;52.344;14.530;2023-05-29T07:50:47;101487.13;;;17.68;44.70
49055;BME280;35405;52.344;14.530;2023-05-29T07:53:13;101494.88;;;17.73;43.37
49055;BME280;35405;52.344;14.530;2023-05-29T07:55:38;101492.47;;;17.65;43.14
49055;BME280;35405;52.344;14.530;2023-05-29T07:58:03;101492.78;;;17.84;43.23
49055;BME280;35405;52.344;14.530;2023-05-29T08:00:28;101490.47;;;17.73;42.96
49055;BME280;35405;52.344;14.530;2023-05-29T08:02:53;101500.94;;;18.01;43.38
49055;BME280;35405;52.344;14.530;2023-05-29T08:05:19;101488.84;;;18.22;43.60
49055;BME280;35405;52.344;14.530;2023-05-29T08:07:44;101496.72;;;18.47;42.77
49055;BME280;35405;52.344;14.530;2023-05-29T08:10:09;101490.19;;;18.82;43.03
49055;BME280;35405;52.344;14.530;2023-05-29T08:12:34;101488.47;;;18.81;42.75
49055;BME280;35405;52.344;14.530;2023-05-29T08:15:00;101488.88;;;18.46;41.98
49055;BME280;35405;52.344;14.530;2023-05-29T08:17:26;101496.31;;;18.09;42.18
49055;BME280;35405;52.344;14.530;2023-05-29T08:19:51;101490.59;;;18.22;42.84
49055;BME280;35405;52.344;14.530;2023-05-29T08:22:16;101495.38;;;18.60;42.82
49055;BME280;35405;52.344;14.530;2023-05-29T08:24:41;101493.75;;;18.81;41.50
49055;BME280;35405;52.344;14.530;2023-05-29T08:27:06;101494.66;;;19.04;41.63
49055;BME280;35405;52.344;14.530;2023-05-29T08:29:32;101493.19;;;18.23;42.62
49055;BME280;35405;52.344;14.530;2023-05-29T08:31:57;101499.31;;;17.97;42.59
49055;BME280;35405;52.344;14.530;2023-05-29T08:34:22;101492.53;;;18.16;43.05
49055;BME280;35405;52.344;14.530;2023-05-29T08:36:48;101494.44;;;18.61;42.91
49055;BME280;35405;52.344;14.530;2023-05-29T08:39:13;101491.00;;;18.84;42.58
49055;BME280;35405;52.344;14.530;2023-05-29T08:41:56;101491.97;;;18.82;42.23
49055;BME280;35405;52.344;14.530;2023-05-29T08:44:24;101487.28;;;18.90;40.83
49055;BME280;35405;52.344;14.530;2023-05-29T08:46:55;101488.28;;;19.09;40.45
49055;BME280;35405;52.344;14.530;2023-05-29T08:49:20;101488.63;;;19.24;40.86
49055;BME280;35405;52.344;14.530;2023-05-29T08:51:47;101491.53;;;19.16;40.29
49055;BME280;35405;52.344;14.530;2023-05-29T08:54:15;101479.53;;;19.09;41.28
49055;BME280;35405;52.344;14.530;2023-05-29T08:56:41;101488.00;;;19.17;41.41
49055;BME280;35405;52.344;14.530;2023-05-29T08:59:07;101488.34;;;19.08;41.00
49055;BME280;35405;52.344;14.530;2023-05-29T09:01:33;101496.28;;;19.06;41.10
49055;BME280;35405;52.344;14.530;2023-05-29T09:03:59;101494.91;;;19.20;40.38
49055;BME280;35405;52.344;14.530;2023-05-29T09:06:26;101485.59;;;19.11;40.65
49055;BME280;35405;52.344;14.530;2023-05-29T09:08:51;101493.50;;;19.33;40.55
49055;BME280;35405;52.344;14.530;2023-05-29T09:11:17;101489.22;;;19.52;40.41
49055;BME280;35405;52.344;14.530;2023-05-29T09:13:42;101481.03;;;19.82;39.74
49055;BME280;35405;52.344;14.530;2023-05-29T09:16:07;101487.53;;;19.94;38.74
49055;BME280;35405;52.344;14.530;2023-05-29T09:18:33;101480.69;;;19.69;37.92
49055;BME280;35405;52.344;14.530;2023-05-29T09:20:58;101488.72;;;19.87;35.67
49055;BME280;35405;52.344;14.530;2023-05-29T09:23:25;101491.50;;;20.04;36.86
49055;BME280;35405;52.344;14.530;2023-05-29T09:25:53;101495.72;;;20.28;36.33
49055;BME280;35405;52.344;14.530;2023-05-29T09:28:20;101497.47;;;20.08;37.39
49055;BME280;35405;52.344;14.530;2023-05-29T09:30:46;101500.47;;;19.56;37.07
49055;BME280;35405;52.344;14.530;2023-05-29T09:33:15;101489.41;;;19.04;37.71
49055;BME280;35405;52.344;14.530;2023-05-29T09:35:41;101504.47;;;19.44;36.72
49055;BME280;35405;52.344;14.530;2023-05-29T09:38:07;101494.41;;;19.54;37.10
49055;BME280;35405;52.344;14.530;2023-05-29T09:40:33;101485.56;;;19.78;36.14
49055;BME280;35405;52.344;14.530;2023-05-29T09:43:06;101493.25;;;19.83;36.28
49055;BME280;35405;52.344;14.530;2023-05-29T09:45:36;101490.63;;;19.83;36.68
49055;BME280;35405;52.344;14.530;2023-05-29T09:48:01;101487.53;;;19.94;36.32
49055;BME280;35405;52.344;14.530;2023-05-29T09:50:27;101488.47;;;20.13;36.68
49055;BME280;35405;52.344;14.530;2023-05-29T09:52:53;101489.91;;;20.00;36.21
49055;BME280;35405;52.344;14.530;2023-05-29T09:55:21;101486.34;;;19.80;36.19
49055;BME280;35405;52.344;14.530;2023-05-29T09:57:47;101483.72;;;20.01;35.73
49055;BME280;35405;52.344;14.530;2023-05-29T10:00:17;101488.81;;;20.26;36.06
49055;BME280;35405;52.344;14.530;2023-05-29T10:02:42;101491.94;;;20.34;35.84
49055;BME280;35405;52.344;14.530;2023-05-29T10:05:07;101496.50;;;20.51;36.13
49055;BME280;35405;52.344;14.530;2023-05-29T10:07:34;101498.78;;;20.38;36.06
49055;BME280;35405;52.344;14.530;2023-05-29T10:10:04;101510.22;;;20.59;36.05
49055;BME280;35405;52.344;14.530;2023-05-29T10:12:31;101499.53;;;20.81;35.65
49055;BME280;35405;52.344;14.530;2023-05-29T10:14:58;101502.75;;;20.88;34.20
49055;BME280;35405;52.344;14.530;2023-05-29T10:17:25;101489.97;;;20.79;34.62
49055;BME280;35405;52.344;14.530;2023-05-29T10:19:51;101487.13;;;21.02;34.78
49055;BME280;35405;52.344;14.530;2023-05-29T10:22:18;101488.69;;;20.48;34.86
49055;BME280;35405;52.344;14.530;2023-05-29T10:24:44;101486.19;;;20.26;36.50
49055;BME280;35405;52.344;14.530;2023-05-29T10:27:10;101492.03;;;20.53;35.50
49055;BME280;35405;52.344;14.530;2023-05-29T10:29:37;101488.47;;;20.54;35.30
49055;BME280;35405;52.344;14.530;2023-05-29T10:34:41;101476.44;;;21.05;34.44
49055;BME280;35405;52.344;14.530;2023-05-29T10:37:18;101487.00;;;21.24;34.16
49055;BME280;35405;52.344;14.530;2023-05-29T10:39:43;101477.56;;;21.74;33.32
49055;BME280;35405;52.344;14.530;2023-05-29T10:44:52;101488.84;;;21.77;33.25
49055;BME280;35405;52.344;14.530;2023-05-29T10:47:22;101493.56;;;21.53;33.18
49055;BME280;35405;52.344;14.530;2023-05-29T10:49:50;101492.88;;;21.67;33.17
49055;BME280;35405;52.344;14.530;2023-05-29T10:52:19;101485.50;;;21.74;33.22
49055;BME280;35405;52.344;14.530;2023-05-29T10:54:52;101490.94;;;21.88;32.77
49055;BME280;35405;52.344;14.530;2023-05-29T10:57:20;101482.34;;;21.48;32.68
49055;BME280;35405;52.344;14.530;2023-05-29T10:59:45;101490.56;;;21.42;32.87
49055;BME280;35405;52.344;14.530;2023-05-29T11:02:10;101490.94;;;22.23;31.88
49055;BME280;35405;52.344;14.530;2023-05-29T11:04:36;101483.13;;;22.70;30.97
49055;BME280;35405;52.344;14.530;2023-05-29T11:07:02;101483.63;;;22.94;30.60
49055;BME280;35405;52.344;14.530;2023-05-29T11:09:37;101492.63;;;22.24;30.46
49055;BME280;35405;52.344;14.530;2023-05-29T11:12:14;101491.78;;;20.97;32.49
49055;BME280;35405;52.344;14.530;2023-05-29T11:15:14;101482.22;;;20.94;33.23
49055;BME280;35405;52.344;14.530;2023-05-29T11:17:32;101480.66;;;21.47;32.22
49055;BME280;35405;52.344;14.530;2023-05-29T11:20:00;101480.16;;;21.56;31.72
49055;BME280;35405;52.344;14.530;2023-05-29T11:22:27;101482.16;;;21.87;31.07
49055;BME280;35405;52.344;14.530;2023-05-29T11:24:55;101473.44;;;22.20;30.49
49055;BME280;35405;52.344;14.530;2023-05-29T11:27:22;101473.75;;;22.14;30.01
49055;BME280;35405;52.344;14.530;2023-05-29T11:29:48;101475.41;;;22.16;30.62
49055;BME280;35405;52.344;14.530;2023-05-29T11:32:14;101473.53;;;22.01;30.75
49055;BME280;35405;52.344;14.530;2023-05-29T11:34:41;101471.19;;;22.12;30.81
49055;BME280;35405;52.344;14.530;2023-05-29T11:37:09;101471.34;;;21.57;30.15
49055;BME280;35405;52.344;14.530;2023-05-29T11:39:37;101474.31;;;21.13;30.31
49055;BME280;35405;52.344;14.530;2023-05-29T11:42:02;101470.75;;;20.95;31.20
49055;BME280;35405;52.344;14.530;2023-05-29T11:44:28;101467.28;;;20.76;31.74
49055;BME280;35405;52.344;14.530;2023-05-29T11:47:03;101463.19;;;20.29;32.57
49055;BME280;35405;52.344;14.530;2023-05-29T11:49:29;101463.22;;;20.28;33.49
49055;BME280;35405;52.344;14.530;2023-05-29T11:52:04;101462.69;;;20.40;32.00
49055;BME280;35405;52.344;14.530;2023-05-29T11:54:30;101466.72;;;20.49;32.87
49055;BME280;35405;52.344;14.530;2023-05-29T11:56:55;101454.34;;;20.51;32.40
49055;BME280;35405;52.344;14.530;2023-05-29T11:59:20;101451.75;;;20.49;32.08
49055;BME280;35405;52.344;14.530;2023-05-29T12:01:45;101449.25;;;20.67;32.04
49055;BME280;35405;52.344;14.530;2023-05-29T12:04:14;101456.66;;;20.78;32.18
49055;BME280;35405;52.344;14.530;2023-05-29T12:06:39;101458.66;;;20.72;31.96
49055;BME280;35405;52.344;14.530;2023-05-29T12:09:07;101458.50;;;20.94;32.01
49055;BME280;35405;52.344;14.530;2023-05-29T12:11:33;101452.38;;;21.13;31.43
49055;BME280;35405;52.344;14.530;2023-05-29T12:14:00;101454.59;;;21.03;31.73
49055;BME280;35405;52.344;14.530;2023-05-29T12:16:26;101447.28;;;21.08;31.32
49055;BME280;35405;52.344;14.530;2023-05-29T12:18:52;101444.84;;;21.22;31.41
49055;BME280;35405;52.344;14.530;2023-05-29T12:21:18;101436.88;;;21.05;31.12
49055;BME280;35405;52.344;14.530;2023-05-29T12:23:45;101440.31;;;21.07;31.58
49055;BME280;35405;52.344;14.530;2023-05-29T12:26:10;101439.94;;;21.15;31.47
49055;BME280;35405;52.344;14.530;2023-05-29T12:28:35;101447.88;;;21.32;30.73
49055;BME280;35405;52.344;14.530;2023-05-29T12:31:06;101441.41;;;21.39;30.45
49055;BME280;35405;52.344;14.530;2023-05-29T12:33:32;101438.47;;;21.63;30.36
49055;BME280;35405;52.344;14.530;2023-05-29T12:36:02;101439.25;;;22.17;29.49
49055;BME280;35405;52.344;14.530;2023-05-29T12:38:27;101436.19;;;22.42;29.35
49055;BME280;35405;52.344;14.530;2023-05-29T12:40:52;101435.50;;;22.38;29.21
49055;BME280;35405;52.344;14.530;2023-05-29T12:43:18;101442.84;;;21.81;30.15
49055;BME280;35405;52.344;14.530;2023-05-29T12:45:44;101436.72;;;21.63;30.67
49055;BME280;35405;52.344;14.530;2023-05-29T12:48:09;101440.09;;;21.12;31.33
49055;BME280;35405;52.344;14.530;2023-05-29T12:50:37;101435.22;;;21.21;31.12
49055;BME280;35405;52.344;14.530;2023-05-29T12:53:07;101432.91;;;21.52;31.06
49055;BME280;35405;52.344;14.530;2023-05-29T12:55:33;101430.94;;;21.55;30.79
49055;BME280;35405;52.344;14.530;2023-05-29T12:58:01;101429.00;;;21.22;31.48
49055;BME280;35405;52.344;14.530;2023-05-29T13:00:26;101425.16;;;21.30;31.00
49055;BME280;35405;52.344;14.530;2023-05-29T13:02:52;101426.22;;;21.62;30.75
49055;BME280;35405;52.344;14.530;2023-05-29T13:05:17;101428.69;;;22.17;30.30
49055;BME280;35405;52.344;14.530;2023-05-29T13:07:44;101418.97;;;22.51;29.37
49055;BME280;35405;52.344;14.530;2023-05-29T13:10:10;101413.19;;;23.23;28.80
49055;BME280;35405;52.344;14.530;2023-05-29T13:12:35;101417.19;;;23.91;27.74
49055;BME280;35405;52.344;14.530;2023-05-29T13:15:00;101417.97;;;23.93;27.12
49055;BME280;35405;52.344;14.530;2023-05-29T13:17:25;101421.13;;;23.23;28.04
49055;BME280;35405;52.344;14.530;2023-05-29T13:19:51;101411.34;;;23.09;27.27
49055;BME280;35405;52.344;14.530;2023-05-29T13:22:16;101403.19;;;22.81;28.42
49055;BME280;35405;52.344;14.530;2023-05-29T13:24:41;101398.19;;;22.76;28.28
49055;BME280;35405;52.344;14.530;2023-05-29T13:27:06;101408.34;;;23.00;28.35
49055;BME280;35405;52.344;14.530;2023-05-29T13:29:32;101406.00;;;22.78;28.58
49055;BME280;35405;52.344;14.530;2023-05-29T13:31:57;101410.47;;;22.61;28.51
49055;BME280;35405;52.344;14.530;2023-05-29T13:34:22;101396.72;;;22.86;29.29
49055;BME280;35405;52.344;14.530;2023-05-29T13:36:50;101405.84;;;22.49;28.35
49055;BME280;35405;52.344;14.530;2023-05-29T13:39:15;101408.38;;;21.84;29.56
49055;BME280;35405;52.344;14.530;2023-05-29T13:41:41;101404.84;;;21.66;30.14
49055;BME280;35405;52.344;14.530;2023-05-29T13:44:06;101403.31;;;21.45;30.28
49055;BME280;35405;52.344;14.530;2023-05-29T13:46:31;101401.06;;;21.72;30.22
49055;BME280;35405;52.344;14.530;2023-05-29T13:48:56;101409.78;;;21.74;30.13
49055;BME280;35405;52.344;14.530;2023-05-29T13:51:21;101400.81;;;21.59;30.29
49055;BME280;35405;52.344;14.530;2023-05-29T13:53:47;101397.13;;;21.63;30.01
49055;BME280;35405;52.344;14.530;2023-05-29T13:56:12;101394.03;;;22.06;29.90
49055;BME280;35405;52.344;14.530;2023-05-29T13:58:37;101384.22;;;22.25;29.31
49055;BME280;35405;52.344;14.530;2023-05-29T14:01:02;101387.94;;;22.70;29.85
49055;BME280;35405;52.344;14.530;2023-05-29T14:03:27;101389.34;;;22.44;29.51
49055;BME280;35405;52.344;14.530;2023-05-29T14:05:54;101383.31;;;22.42;30.04
49055;BME280;35405;52.344;14.530;2023-05-29T14:08:19;101378.03;;;22.42;30.60
49055;BME280;35405;52.344;14.530;2023-05-29T14:10:44;101390.03;;;22.32;30.55
49055;BME280;35405;52.344;14.530;2023-05-29T14:13:09;101381.84;;;22.36;30.56
49055;BME280;35405;52.344;14.530;2023-05-29T14:15:35;101385.34;;;22.37;30.62
49055;BME280;35405;52.344;14.530;2023-05-29T14:18:00;101387.91;;;22.38;31.00
49055;BME280;35405;52.344;14.530;2023-05-29T14:20:27;101391.06;;;22.29;31.07
49055;BME280;35405;52.344;14.530;2023-05-29T14:22:52;101394.22;;;22.36;30.58
49055;BME280;35405;52.344;14.530;2023-05-29T14:25:17;101397.72;;;22.36;30.53
49055;BME280;35405;52.344;14.530;2023-05-29T14:27:42;101400.31;;;22.03;30.89
49055;BME280;35405;52.344;14.530;2023-05-29T14:30:08;101407.81;;;21.95;31.08
49055;BME280;35405;52.344;14.530;2023-05-29T14:32:33;101403.59;;;22.08;31.15
49055;BME280;35405;52.344;14.530;2023-05-29T14:34:59;101406.06;;;22.11;31.33
49055;BME280;35405;52.344;14.530;2023-05-29T14:37:24;101394.69;;;21.76;31.37
49055;BME280;35405;52.344;14.530;2023-05-29T14:39:49;101394.31;;;21.66;31.57
49055;BME280;35405;52.344;14.530;2023-05-29T14:42:15;101400.53;;;21.29;31.77
49055;BME280;35405;52.344;14.530;2023-05-29T14:44:41;101392.06;;;21.59;31.93
49055;BME280;35405;52.344;14.530;2023-05-29T14:47:06;101394.19;;;22.03;31.18
49055;BME280;35405;52.344;14.530;2023-05-29T14:49:31;101392.13;;;21.75;31.34
49055;BME280;35405;52.344;14.530;2023-05-29T14:51:58;101393.22;;;21.88;31.32
49055;BME280;35405;52.344;14.530;2023-05-29T14:54:23;101384.00;;;21.44;31.19
49055;BME280;35405;52.344;14.530;2023-05-29T14:56:49;101379.16;;;21.35;31.41
49055;BME280;35405;52.344;14.530;2023-05-29T14:59:14;101377.84;;;21.61;32.06
49055;BME280;35405;52.344;14.530;2023-05-29T15:01:39;101372.28;;;21.50;31.67
49055;BME280;35405;52.344;14.530;2023-05-29T15:04:04;101372.41;;;21.64;31.99
49055;BME280;35405;52.344;14.530;2023-05-29T15:06:30;101372.13;;;21.53;32.12
49055;BME280;35405;52.344;14.530;2023-05-29T15:08:57;101366.91;;;21.15;32.05
49055;BME280;35405;52.344;14.530;2023-05-29T15:11:23;101364.84;;;21.22;32.32
49055;BME280;35405;52.344;14.530;2023-05-29T15:13:48;101369.97;;;21.25;32.36
49055;BME280;35405;52.344;14.530;2023-05-29T15:16:13;101373.94;;;21.34;30.93
49055;BME280;35405;52.344;14.530;2023-05-29T15:18:38;101364.72;;;21.42;31.39
49055;BME280;35405;52.344;14.530;2023-05-29T15:21:04;101365.06;;;21.54;31.62
49055;BME280;35405;52.344;14.530;2023-05-29T15:23:29;101362.25;;;21.57;31.21
49055;BME280;35405;52.344;14.530;2023-05-29T15:25:55;101363.66;;;21.47;31.60
49055;BME280;35405;52.344;14.530;2023-05-29T15:28:20;101360.69;;;20.99;31.86
49055;BME280;35405;52.344;14.530;2023-05-29T15:30:46;101358.88;;;20.82;32.06
49055;BME280;35405;52.344;14.530;2023-05-29T15:33:11;101355.03;;;20.89;32.05
49055;BME280;35405;52.344;14.530;2023-05-29T15:35:36;101361.41;;;21.03;32.21
49055;BME280;35405;52.344;14.530;2023-05-29T15:38:03;101356.78;;;21.25;31.48
49055;BME280;35405;52.344;14.530;2023-05-29T15:40:28;101353.97;;;21.47;30.94
49055;BME280;35405;52.344;14.530;2023-05-29T15:42:53;101357.16;;;21.36;31.32
49055;BME280;35405;52.344;14.530;2023-05-29T15:45:18;101348.94;;;21.23;31.82
49055;BME280;35405;52.344;14.530;2023-05-29T15:47:44;101360.53;;;21.02;32.39
49055;BME280;35405;52.344;14.530;2023-05-29T15:50:09;101352.16;;;20.94;32.59
49055;BME280;35405;52.344;14.530;2023-05-29T15:52:34;101352.31;;;20.91;33.47
49055;BME280;35405;52.344;14.530;2023-05-29T15:55:00;101357.09;;;20.83;32.92
49055;BME280;35405;52.344;14.530;2023-05-29T15:57:25;101349.13;;;21.02;32.73
49055;BME280;35405;52.344;14.530;2023-05-29T15:59:50;101349.25;;;20.81;32.62
49055;BME280;35405;52.344;14.530;2023-05-29T16:02:15;101354.56;;;20.62;33.12
49055;BME280;35405;52.344;14.530;2023-05-29T16:04:40;101348.41;;;20.43;33.23
49055;BME280;35405;52.344;14.530;2023-05-29T16:07:06;101349.06;;;20.29;33.06
49055;BME280;35405;52.344;14.530;2023-05-29T16:09:31;101352.31;;;20.34;33.31
49055;BME280;35405;52.344;14.530;2023-05-29T16:11:56;101348.78;;;20.35;33.80
49055;BME280;35405;52.344;14.530;2023-05-29T16:14:21;101358.50;;;20.33;33.54
49055;BME280;35405;52.344;14.530;2023-05-29T16:16:47;101354.19;;;20.32;33.85
49055;BME280;35405;52.344;14.530;2023-05-29T16:19:12;101352.53;;;20.29;33.67
49055;BME280;35405;52.344;14.530;2023-05-29T16:21:37;101353.69;;;20.43;33.46
49055;BME280;35405;52.344;14.530;2023-05-29T16:24:03;101353.16;;;20.35;34.01
49055;BME280;35405;52.344;14.530;2023-05-29T16:26:29;101358.06;;;20.23;34.16
49055;BME280;35405;52.344;14.530;2023-05-29T16:28:57;101351.59;;;20.31;33.96
49055;BME280;35405;52.344;14.530;2023-05-29T16:31:23;101361.44;;;20.27;34.14
49055;BME280;35405;52.344;14.530;2023-05-29T16:33:49;101361.84;;;20.18;33.73
49055;BME280;35405;52.344;14.530;2023-05-29T16:36:14;101355.09;;;20.12;34.30
49055;BME280;35405;52.344;14.530;2023-05-29T16:38:40;101361.69;;;20.21;34.58
49055;BME280;35405;52.344;14.530;2023-05-29T16:41:05;101363.22;;;20.45;34.32
49055;BME280;35405;52.344;14.530;2023-05-29T16:43:31;101358.25;;;20.39;34.32
49055;BME280;35405;52.344;14.530;2023-05-29T16:45:56;101354.19;;;20.32;34.18
49055;BME280;35405;52.344;14.530;2023-05-29T16:48:22;101353.16;;;20.35;34.42
49055;BME280;35405;52.344;14.530;2023-05-29T16:50:47;101357.72;;;20.12;34.78
49055;BME280;35405;52.344;14.530;2023-05-29T16:53:12;101357.53;;;19.96;35.00
49055;BME280;35405;52.344;14.530;2023-05-29T16:55:37;101356.69;;;19.96;35.78
49055;BME280;35405;52.344;14.530;2023-05-29T16:58:02;101356.16;;;19.88;35.44
49055;BME280;35405;52.344;14.530;2023-05-29T17:00:28;101358.97;;;19.64;35.92
49055;BME280;35405;52.344;14.530;2023-05-29T17:02:54;101360.81;;;19.61;36.44
49055;BME280;35405;52.344;14.530;2023-05-29T17:05:19;101366.66;;;19.47;36.65
49055;BME280;35405;52.344;14.530;2023-05-29T17:07:45;101357.44;;;19.37;37.16
49055;BME280;35405;52.344;14.530;2023-05-29T17:10:10;101366.19;;;19.37;37.43
49055;BME280;35405;52.344;14.530;2023-05-29T17:12:35;101363.22;;;19.24;37.64
49055;BME280;35405;52.344;14.530;2023-05-29T17:15:02;101365.88;;;19.24;37.44
49055;BME280;35405;52.344;14.530;2023-05-29T17:17:27;101367.75;;;19.21;37.63
49055;BME280;35405;52.344;14.530;2023-05-29T17:19:52;101360.91;;;19.17;37.26
49055;BME280;35405;52.344;14.530;2023-05-29T17:22:18;101354.91;;;19.13;37.45
49055;BME280;35405;52.344;14.530;2023-05-29T17:24:43;101358.53;;;19.10;37.69
49055;BME280;35405;52.344;14.530;2023-05-29T17:27:08;101357.00;;;19.05;37.57
49055;BME280;35405;52.344;14.530;2023-05-29T17:29:33;101364.59;;;18.91;37.52
49055;BME280;35405;52.344;14.530;2023-05-29T17:31:59;101358.78;;;18.82;37.17
49055;BME280;35405;52.344;14.530;2023-05-29T17:34:24;101356.34;;;18.78;37.23
49055;BME280;35405;52.344;14.530;2023-05-29T17:36:49;101359.94;;;18.75;37.35
49055;BME280;35405;52.344;14.530;2023-05-29T17:39:15;101361.00;;;18.70;37.85
49055;BME280;35405;52.344;14.530;2023-05-29T17:41:40;101362.13;;;18.62;37.82
49055;BME280;35405;52.344;14.530;2023-05-29T17:44:05;101367.81;;;18.52;37.92
49055;BME280;35405;52.344;14.530;2023-05-29T17:46:31;101372.56;;;18.42;38.25
49055;BME280;35405;52.344;14.530;2023-05-29T17:48:56;101371.19;;;18.32;38.46
49055;BME280;35405;52.344;14.530;2023-05-29T17:51:21;101370.66;;;18.22;38.53
49055;BME280;35405;52.344;14.530;2023-05-29T17:53:48;101367.56;;;18.12;38.96
49055;BME280;35405;52.344;14.530;2023-05-29T17:56:14;101368.78;;;18.02;39.44
49055;BME280;35405;52.344;14.530;2023-05-29T17:58:39;101366.59;;;17.90;39.51
49055;BME280;35405;52.344;14.530;2023-05-29T18:01:06;101383.50;;;17.81;40.09
49055;BME280;35405;52.344;14.530;2023-05-29T18:03:32;101377.66;;;17.73;39.89
49055;BME280;35405;52.344;14.530;2023-05-29T18:05:57;101378.88;;;17.63;40.04
49055;BME280;35405;52.344;14.530;2023-05-29T18:08:23;101379.19;;;17.54;40.32
49055;BME280;35405;52.344;14.530;2023-05-29T18:10:48;101379.44;;;17.46;40.68
49055;BME280;35405;52.344;14.530;2023-05-29T18:13:13;101382.34;;;17.38;40.62
49055;BME280;35405;52.344;14.530;2023-05-29T18:15:38;101379.94;;;17.31;40.86
49055;BME280;35405;52.344;14.530;2023-05-29T18:18:03;101381.06;;;17.23;40.82
49055;BME280;35405;52.344;14.530;2023-05-29T18:20:29;101379.59;;;17.15;40.88
49055;BME280;35405;52.344;14.530;2023-05-29T18:22:55;101381.59;;;17.07;41.22
49055;BME280;35405;52.344;14.530;2023-05-29T18:25:21;101389.72;;;16.99;41.10
49055;BME280;35405;52.344;14.530;2023-05-29T18:27:46;101389.91;;;16.93;41.67
49055;BME280;35405;52.344;14.530;2023-05-29T18:30:11;101384.91;;;16.85;42.02
49055;BME280;35405;52.344;14.530;2023-05-29T18:32:37;101376.31;;;16.80;41.66
49055;BME280;35405;52.344;14.530;2023-05-29T18:35:02;101380.94;;;16.70;41.90
49055;BME280;35405;52.344;14.530;2023-05-29T18:37:28;101377.69;;;16.62;42.00
49055;BME280;35405;52.344;14.530;2023-05-29T18:39:53;101385.78;;;16.55;42.16